Time;durP1;ratioP1;P1;durP2;ratioP2;P2;SDS_P1;SDS_P2;PMS_P1;PMS_P2;Temp;Humidity;BMP_temperature;BMP_pressure;BME280_temperature;BME280_humidity;BME280_pressure;Samples;Min_cycle;Max_cycle;Signal;HPM_P1;HPM_P2
2022/10/09 00:00:48;;;;;;;7.72;4.40;;;;;;;13.61;50.22;94242.91;5086304;28;20483;-77
2022/10/09 00:03:16;;;;;;;5.10;3.95;;;;;;;13.60;50.51;94238.66;5086981;28;20112;-78
2022/10/09 00:05:42;;;;;;;5.00;4.15;;;;;;;13.56;50.41;94228.91;5087079;28;20020;-77
2022/10/09 00:08:08;;;;;;;3.83;3.40;;;;;;;13.52;50.55;94222.66;5088312;28;20020;-77
2022/10/09 00:10:33;;;;;;;4.68;3.45;;;;;;;13.45;50.38;94220.47;5088617;28;20360;-75
2022/10/09 00:12:59;;;;;;;3.70;2.95;;;;;;;13.58;50.63;94230.19;5087196;28;20054;-76
2022/10/09 00:15:24;;;;;;;3.55;2.92;;;;;;;13.54;50.27;94241.84;5088191;28;20047;-76
2022/10/09 00:17:49;;;;;;;5.30;3.35;;;;;;;13.40;50.56;94225.22;5086932;28;20027;-75
2022/10/09 00:20:15;;;;;;;11.27;3.53;;;;;;;13.53;50.45;94238.38;5088331;28;20037;-77
2022/10/09 00:22:42;;;;;;;4.97;3.40;;;;;;;13.30;50.50;94199.63;5088065;28;20122;-76
2022/10/09 00:25:08;;;;;;;5.63;4.15;;;;;;;13.47;50.67;94226.28;5087995;28;20044;-76
2022/10/09 00:27:34;;;;;;;7.00;4.18;;;;;;;13.51;50.41;94221.88;5094016;28;20548;-75
2022/10/09 00:29:59;;;;;;;5.85;3.83;;;;;;;13.51;50.66;94221.06;5085731;28;20020;-75
2022/10/09 00:32:25;;;;;;;4.55;3.53;;;;;;;13.32;50.83;94195.53;5087017;28;20046;-76
2022/10/09 00:34:51;;;;;;;5.13;3.25;;;;;;;13.31;50.69;94187.84;5087449;28;20642;-77
2022/10/09 00:37:16;;;;;;;3.92;3.33;;;;;;;13.33;50.79;94188.31;5089415;27;20019;-75
2022/10/09 00:39:42;;;;;;;4.18;3.25;;;;;;;13.30;51.07;94194.28;5089554;27;20023;-75
2022/10/09 00:42:10;;;;;;;3.20;2.90;;;;;;;13.38;50.96;94193.47;5090025;27;20494;-76
2022/10/09 00:44:50;;;;;;;4.43;3.15;;;;;;;12.84;50.88;94110.44;5088470;27;20027;-75
2022/10/09 00:47:46;;;;;;;5.60;3.85;;;;;;;13.43;50.81;94203.22;5092941;27;20156;-76
2022/10/09 00:50:18;;;;;;;3.70;3.25;;;;;;;13.36;50.87;94201.03;5091506;27;20024;-76
2022/10/09 00:52:44;;;;;;;7.78;3.50;;;;;;;13.33;51.13;94207.00;5092567;27;20108;-77
2022/10/09 00:55:11;;;;;;;4.47;3.33;;;;;;;13.30;50.92;94189.72;5089298;27;20545;-77
2022/10/09 00:57:38;;;;;;;5.35;3.42;;;;;;;13.12;51.04;94155.41;5089787;27;20043;-77
2022/10/09 01:00:07;;;;;;;6.47;2.70;;;;;;;13.33;51.06;94191.00;5088856;28;20024;-78
2022/10/09 01:02:33;;;;;;;6.57;3.65;;;;;;;13.38;51.04;94195.38;5089707;27;20032;-77
2022/10/09 01:04:58;;;;;;;3.95;3.55;;;;;;;13.33;51.06;94185.66;5090737;27;20159;-77
2022/10/09 01:07:33;;;;;;;4.05;3.40;;;;;;;13.13;51.05;94151.63;5085540;27;20016;-77
2022/10/09 01:10:26;;;;;;;4.93;3.63;;;;;;;13.36;50.79;94194.91;5087650;27;20023;-78
2022/10/09 01:13:16;;;;;;;3.45;2.50;;;;;;;13.35;50.86;94188.00;5090354;27;20096;-77
2022/10/09 01:15:41;;;;;;;4.85;2.92;;;;;;;13.28;51.01;94189.28;5091428;27;20055;-78
2022/10/09 01:18:23;;;;;;;3.92;2.80;;;;;;;13.26;51.35;94191.47;5090258;27;20107;-77
2022/10/09 01:21:37;;;;;;;4.70;3.50;;;;;;;13.24;51.28;94201.72;5088381;27;20028;-78
2022/10/09 01:24:21;;;;;;;7.00;3.20;;;;;;;13.24;51.30;94198.25;5088870;27;20020;-77
2022/10/09 01:26:52;;;;;;;4.43;3.40;;;;;;;13.24;51.23;94196.38;5097956;27;20051;-79
2022/10/09 01:29:21;;;;;;;4.90;3.45;;;;;;;13.18;51.42;94194.19;5089779;27;20062;-77
2022/10/09 01:31:50;;;;;;;4.05;3.35;;;;;;;13.25;51.07;94197.16;5089350;27;20016;-77
2022/10/09 01:34:18;;;;;;;4.47;3.28;;;;;;;13.24;51.08;94196.38;5090849;27;20066;-77
2022/10/09 01:36:44;;;;;;;3.60;2.90;;;;;;;13.17;51.03;94193.41;5087298;27;20020;-78
2022/10/09 01:39:17;;;;;;;5.38;3.30;;;;;;;13.09;51.09;94166.72;5090151;27;20091;-77
2022/10/09 01:41:43;;;;;;;3.75;2.90;;;;;;;13.26;50.86;94190.69;5096974;27;20026;-77
2022/10/09 01:44:24;;;;;;;3.97;2.78;;;;;;;13.26;51.13;94198.69;5088695;27;20019;-78
2022/10/09 01:46:49;;;;;;;3.10;2.80;;;;;;;13.23;50.96;94205.47;5091655;27;20044;-77
2022/10/09 01:49:28;;;;;;;3.92;2.80;;;;;;;13.12;51.02;94171.41;5086205;27;20131;-77
2022/10/09 01:52:11;;;;;;;4.57;3.47;;;;;;;13.21;50.62;94186.31;5085122;27;20015;-78
2022/10/09 01:54:41;;;;;;;4.63;3.13;;;;;;;13.06;50.92;94172.69;5090786;27;20020;-77
2022/10/09 01:57:09;;;;;;;4.38;2.92;;;;;;;12.99;50.91;94164.41;5094949;27;20455;-77
2022/10/09 01:59:43;;;;;;;4.40;3.05;;;;;;;13.19;51.12;94198.44;5088079;27;20738;-77
2022/10/09 02:02:09;;;;;;;4.57;3.60;;;;;;;12.86;51.14;94153.59;5086702;27;20475;-77
2022/10/09 02:04:39;;;;;;;7.00;4.25;;;;;;;13.19;50.87;94204.56;5090085;27;20028;-77
2022/10/09 02:07:04;;;;;;;3.53;3.10;;;;;;;13.08;50.84;94192.66;5087458;27;20031;-77
2022/10/09 02:09:31;;;;;;;3.58;3.15;;;;;;;13.13;51.01;94200.47;5089867;27;20035;-76
2022/10/09 02:12:02;;;;;;;5.85;3.50;;;;;;;13.02;51.01;94187.78;5085214;28;20032;-77
2022/10/09 02:14:27;;;;;;;3.90;3.10;;;;;;;12.94;51.30;94185.94;5088365;27;20016;-78
2022/10/09 02:17:11;;;;;;;5.90;3.38;;;;;;;13.08;51.36;94215.91;5089325;27;20156;-78
2022/10/09 02:19:41;;;;;;;3.90;2.80;;;;;;;12.93;51.48;94197.72;5092269;27;20027;-77
2022/10/09 02:22:15;;;;;;;4.22;3.47;;;;;;;13.05;51.70;94216.53;5088093;27;20023;-77
2022/10/09 02:24:41;;;;;;;3.95;2.75;;;;;;;13.08;51.53;94219.34;5089282;27;20029;-77
2022/10/09 02:27:07;;;;;;;4.35;2.90;;;;;;;13.03;51.43;94221.41;5090030;27;20020;-77
2022/10/09 02:29:33;;;;;;;4.63;2.70;;;;;;;12.93;51.53;94197.72;5088204;27;20024;-77
2022/10/09 02:31:59;;;;;;;4.68;3.80;;;;;;;13.01;51.42;94215.59;5086345;27;20027;-78
2022/10/09 02:34:24;;;;;;;6.25;2.90;;;;;;;13.03;51.19;94224.84;5088646;27;20024;-77
2022/10/09 02:36:49;;;;;;;6.20;3.15;;;;;;;13.02;51.35;94225.16;5083861;27;20024;-78
2022/10/09 02:39:16;;;;;;;4.18;3.78;;;;;;;13.04;51.56;94222.97;5088781;27;20061;-78
2022/10/09 02:41:41;;;;;;;6.60;3.40;;;;;;;13.03;51.41;94222.19;5086603;27;20019;-78
2022/10/09 02:44:07;;;;;;;4.78;3.22;;;;;;;12.99;51.36;94210.59;5088121;27;20093;-78
2022/10/09 02:46:33;;;;;;;3.33;2.78;;;;;;;12.93;51.55;94206.50;5088893;27;20816;-77
2022/10/09 02:48:58;;;;;;;5.07;4.53;;;;;;;12.77;51.41;94184.88;5086732;27;20106;-77
2022/10/09 02:51:24;;;;;;;4.18;3.38;;;;;;;13.00;51.76;94222.06;5088972;27;20024;-77
2022/10/09 02:53:54;;;;;;;5.35;3.20;;;;;;;12.84;51.93;94198.53;5087651;27;20491;-77
2022/10/09 02:56:22;;;;;;;4.57;2.90;;;;;;;12.86;51.56;94195.53;5084693;27;20019;-77
2022/10/09 02:58:48;;;;;;;4.65;3.50;;;;;;;13.02;52.05;94230.50;5086875;27;20034;-77
2022/10/09 03:01:14;;;;;;;4.80;3.55;;;;;;;12.82;51.84;94194.59;5088190;28;20435;-76
2022/10/09 03:03:39;;;;;;;4.40;3.45;;;;;;;12.97;51.78;94218.13;5090789;27;20186;-76
2022/10/09 03:06:22;;;;;;;5.70;3.58;;;;;;;12.98;52.07;94224.25;5090255;27;20494;-77
2022/10/09 03:08:50;;;;;;;5.72;4.28;;;;;;;12.82;52.05;94194.59;5086193;27;20023;-77
2022/10/09 03:11:17;;;;;;;6.20;3.58;;;;;;;13.01;51.98;94228.94;5087439;27;20028;-77
2022/10/09 03:13:43;;;;;;;3.63;3.17;;;;;;;13.02;51.96;94230.50;5086840;27;20026;-77
2022/10/09 03:16:19;;;;;;;4.57;3.70;;;;;;;12.99;51.69;94220.47;5088911;27;20024;-76
2022/10/09 03:18:45;;;;;;;5.68;4.07;;;;;;;13.03;51.65;94230.19;5090226;27;20081;-76
2022/10/09 03:21:23;;;;;;;4.72;3.80;;;;;;;13.00;51.87;94233.50;5087552;28;20024;-77
2022/10/09 03:23:49;;;;;;;5.00;3.67;;;;;;;12.83;52.00;94218.31;5088393;27;20031;-77
2022/10/09 03:26:18;;;;;;;6.57;4.85;;;;;;;12.90;51.86;94228.50;5089729;27;20020;-76
2022/10/09 03:28:47;;;;;;;4.90;3.97;;;;;;;12.92;51.72;94231.63;5087313;27;20024;-76
2022/10/09 03:31:14;;;;;;;5.13;4.10;;;;;;;12.97;51.95;94241.34;5088057;27;20503;-78
2022/10/09 03:33:40;;;;;;;5.25;3.72;;;;;;;12.92;51.69;94230.84;5087428;27;20019;-77
2022/10/09 03:36:06;;;;;;;7.22;3.85;;;;;;;12.94;51.94;94240.13;5087247;28;20028;-77
2022/10/09 03:38:32;;;;;;;5.25;3.10;;;;;;;12.91;52.00;94229.28;5087802;27;20115;-77
2022/10/09 03:40:58;;;;;;;5.00;3.53;;;;;;;12.84;52.18;94235.91;5088714;28;20026;-77
2022/10/09 03:43:24;;;;;;;7.40;4.53;;;;;;;12.85;52.16;94239.34;5083046;27;20191;-77
2022/10/09 03:45:49;;;;;;;3.70;3.13;;;;;;;12.78;52.08;94231.81;5089043;28;20024;-76
2022/10/09 03:48:15;;;;;;;3.97;3.42;;;;;;;12.76;52.01;94239.34;5087922;28;20490;-77
2022/10/09 03:50:41;;;;;;;4.18;3.65;;;;;;;12.85;51.95;94240.13;5087687;27;20032;-76
2022/10/09 03:53:08;;;;;;;5.13;3.95;;;;;;;12.53;51.48;94195.22;5089478;27;20499;-77
2022/10/09 03:55:33;;;;;;;5.60;3.42;;;;;;;12.87;51.39;94242.47;5084085;28;20024;-76
2022/10/09 03:57:59;;;;;;;4.47;3.70;;;;;;;12.45;51.03;94186.16;5086947;28;20034;-77
2022/10/09 04:00:25;;;;;;;4.95;3.75;;;;;;;12.78;51.05;94242.50;5087788;27;20024;-77
2022/10/09 04:02:50;;;;;;;7.18;3.78;;;;;;;12.69;51.44;94238.25;5086225;28;20100;-77
2022/10/09 04:05:16;;;;;;;4.88;3.45;;;;;;;12.71;51.72;94247.50;5086921;28;20475;-77
2022/10/09 04:07:42;;;;;;;5.65;4.15;;;;;;;12.72;51.86;94243.75;5094969;28;20019;-77
2022/10/09 04:10:08;;;;;;;6.43;4.03;;;;;;;12.52;51.80;94217.66;5084056;28;20110;-77
2022/10/09 04:12:33;;;;;;;5.57;3.85;;;;;;;12.55;51.38;94227.72;5090181;27;20032;-76
2022/10/09 04:14:59;;;;;;;5.32;4.05;;;;;;;12.46;51.57;94224.28;5092663;27;20086;-76
2022/10/09 04:17:25;;;;;;;7.30;3.45;;;;;;;12.46;51.35;94230.41;5091963;27;20035;-76
2022/10/09 04:19:50;;;;;;;10.05;6.47;;;;;;;12.44;51.58;94231.81;5091800;27;20032;-77
2022/10/09 04:22:15;;;;;;;14.85;7.78;;;;;;;12.55;51.24;94251.75;5093371;27;20027;-76
2022/10/09 04:24:41;;;;;;;17.42;9.30;;;;;;;12.52;51.59;94249.69;5090655;27;20092;-77
2022/10/09 04:27:06;;;;;;;22.20;10.00;;;;;;;12.27;51.63;94219.25;5092552;27;20024;-77
2022/10/09 04:29:32;;;;;;;14.65;8.05;;;;;;;12.14;51.71;94200.72;5092292;27;20184;-76
2022/10/09 04:31:57;;;;;;;11.23;7.50;;;;;;;12.28;51.66;94236.03;5091911;27;20272;-77
2022/10/09 04:34:22;;;;;;;15.35;7.50;;;;;;;12.22;51.62;94234.63;5089581;27;20412;-77
2022/10/09 04:36:48;;;;;;;7.65;5.93;;;;;;;12.38;51.77;94259.72;5092044;27;20083;-77
2022/10/09 04:39:13;;;;;;;9.30;5.35;;;;;;;12.24;52.06;94238.53;5089403;28;20247;-76
2022/10/09 04:41:38;;;;;;;8.27;5.95;;;;;;;12.18;51.74;94234.44;5089630;27;20613;-76
2022/10/09 04:44:04;;;;;;;8.18;5.65;;;;;;;12.40;51.57;94260.22;5091447;27;20081;-77
2022/10/09 04:46:30;;;;;;;7.78;5.95;;;;;;;12.38;51.57;94257.06;5091949;27;20398;-76
2022/10/09 04:48:55;;;;;;;9.02;6.70;;;;;;;12.26;51.58;94246.25;5089515;27;20032;-77
2022/10/09 04:51:20;;;;;;;9.88;6.32;;;;;;;12.16;51.73;94243.88;5091652;27;20032;-76
2022/10/09 04:53:46;;;;;;;6.97;5.82;;;;;;;12.13;51.46;94237.25;5090685;27;20051;-77
2022/10/09 04:56:19;;;;;;;6.97;5.78;;;;;;;12.13;52.03;94241.81;5090507;27;20551;-76
2022/10/09 04:58:46;;;;;;;7.28;5.72;;;;;;;12.25;51.79;94261.44;5091971;27;20030;-76
2022/10/09 05:01:18;;;;;;;11.27;6.57;;;;;;;12.11;51.93;94244.03;5090964;27;20023;-77
2022/10/09 05:03:44;;;;;;;7.70;5.80;;;;;;;12.30;52.06;94279.19;5091812;27;20023;-78
2022/10/09 05:06:12;;;;;;;12.32;5.57;;;;;;;12.31;51.85;94276.22;5092409;27;20016;-77
2022/10/09 05:08:37;;;;;;;5.55;4.50;;;;;;;12.33;51.83;94278.53;5089647;27;20031;-77
2022/10/09 05:11:08;;;;;;;8.23;5.72;;;;;;;12.25;52.19;94260.66;5091360;27;20027;-76
2022/10/09 05:13:36;;;;;;;10.05;5.90;;;;;;;12.14;52.12;94241.50;5088939;27;20036;-76
2022/10/09 05:16:03;;;;;;;7.72;5.25;;;;;;;12.40;51.79;94276.22;5091481;27;20016;-76
2022/10/09 05:18:28;;;;;;;9.13;6.20;;;;;;;12.41;52.01;94275.13;5091665;27;20146;-78
2022/10/09 05:20:54;;;;;;;6.88;4.75;;;;;;;12.39;52.35;94279.97;5090435;27;20023;-78
2022/10/09 05:23:19;;;;;;;6.57;5.55;;;;;;;12.16;52.29;94246.53;5089676;27;20024;-78
2022/10/09 05:25:56;;;;;;;10.45;6.22;;;;;;;12.26;52.18;94263.03;5088713;27;20012;-78
2022/10/09 05:28:22;;;;;;;8.18;6.20;;;;;;;12.22;52.24;94250.63;5092102;27;20031;-77
2022/10/09 05:30:47;;;;;;;11.07;6.57;;;;;;;12.44;52.36;94285.16;5090415;27;20364;-77
2022/10/09 05:33:13;;;;;;;14.07;7.80;;;;;;;12.49;52.95;94293.00;5089622;27;20665;-77
2022/10/09 05:35:38;;;;;;;15.65;8.32;;;;;;;12.55;52.79;94291.75;5088064;27;20028;-77
2022/10/09 05:38:03;;;;;;;8.18;6.00;;;;;;;12.57;53.25;94297.56;5090286;27;20470;-77
2022/10/09 05:40:29;;;;;;;7.95;6.10;;;;;;;12.34;53.32;94251.56;5090396;27;20020;-77
2022/10/09 05:42:54;;;;;;;9.82;5.65;;;;;;;12.58;53.47;94285.81;5087991;27;20638;-76
2022/10/09 05:45:19;;;;;;;12.13;7.07;;;;;;;12.69;53.56;94303.09;5088427;27;20054;-77
2022/10/09 05:47:45;;;;;;;9.25;6.45;;;;;;;12.62;53.45;94286.75;5097126;27;20028;-77
2022/10/09 05:50:11;;;;;;;10.13;6.60;;;;;;;12.73;53.66;94292.56;5087954;27;20450;-76
2022/10/09 05:52:38;;;;;;;10.88;7.28;;;;;;;12.68;53.50;94285.50;5088186;27;20574;-76
2022/10/09 05:55:05;;;;;;;10.95;7.38;;;;;;;12.66;53.49;94279.72;5088813;27;20055;-76
2022/10/09 05:57:30;;;;;;;9.00;7.15;;;;;;;12.84;53.44;94304.50;5089430;27;20057;-76
2022/10/09 05:59:56;;;;;;;12.07;8.00;;;;;;;12.79;53.78;94294.00;5089640;27;20069;-77
2022/10/09 06:02:21;;;;;;;10.90;7.10;;;;;;;12.94;53.74;94300.72;5086784;27;20563;-76
2022/10/09 06:04:46;;;;;;;11.68;7.78;;;;;;;12.99;54.07;94319.25;5084738;27;20056;-77
2022/10/09 06:07:12;;;;;;;11.25;7.97;;;;;;;12.95;54.13;94321.00;5088332;27;20088;-76
2022/10/09 06:09:37;;;;;;;11.95;8.13;;;;;;;12.89;54.09;94301.69;5088052;28;20042;-77
2022/10/09 06:12:02;;;;;;;10.70;8.20;;;;;;;13.13;54.15;94327.88;5088243;27;20023;-77
2022/10/09 06:14:28;;;;;;;11.38;8.75;;;;;;;13.05;54.09;94318.00;5089967;27;20526;-76
2022/10/09 06:16:53;;;;;;;13.95;9.20;;;;;;;12.82;54.22;94267.44;5086386;27;20031;-76
2022/10/09 06:19:19;;;;;;;14.25;8.98;;;;;;;13.29;54.13;94339.66;5086431;27;20030;-77
2022/10/09 06:21:46;;;;;;;10.75;8.45;;;;;;;13.26;53.90;94327.69;5086838;27;20031;-76
2022/10/09 06:24:23;;;;;;;14.00;8.70;;;;;;;13.29;54.00;94318.28;5090928;27;20063;-76
2022/10/09 06:26:49;;;;;;;15.30;8.75;;;;;;;13.54;53.71;94340.72;5094909;27;20055;-76
2022/10/09 06:29:14;;;;;;;14.95;9.18;;;;;;;13.61;53.77;94341.81;5087408;28;20111;-76
2022/10/09 06:31:40;;;;;;;13.45;8.93;;;;;;;13.68;53.29;94344.00;5086284;27;20054;-77
2022/10/09 06:34:05;;;;;;;14.80;9.05;;;;;;;13.57;53.61;94340.84;5086806;27;20027;-77
2022/10/09 06:36:33;;;;;;;9.95;8.43;;;;;;;13.63;53.47;94342.28;5084083;27;20057;-76
2022/10/09 06:39:00;;;;;;;14.10;9.48;;;;;;;13.75;53.52;94350.41;5088531;27;20441;-76
2022/10/09 06:41:27;;;;;;;12.20;9.00;;;;;;;13.49;53.17;94298.91;5085618;27;20050;-75
2022/10/09 06:43:58;;;;;;;11.43;7.78;;;;;;;13.71;52.35;94338.78;5103028;27;20030;-76
2022/10/09 06:46:26;;;;;;;12.73;9.10;;;;;;;13.87;52.01;94351.63;5082850;27;20028;-76
2022/10/09 06:48:52;;;;;;;18.15;9.68;;;;;;;13.81;52.23;94339.53;5083517;27;20023;-76
2022/10/09 06:51:19;;;;;;;13.85;9.18;;;;;;;14.01;52.15;94365.56;5084123;27;20084;-76
2022/10/09 06:53:47;;;;;;;14.93;9.18;;;;;;;14.03;52.16;94352.69;5083458;27;20127;-76
2022/10/09 06:56:14;;;;;;;13.88;9.23;;;;;;;14.13;52.25;94355.00;5085396;27;20633;-78
2022/10/09 06:58:40;;;;;;;37.20;21.65;;;;;;;14.20;51.78;94357.94;5081378;27;20035;-76
2022/10/09 07:01:05;;;;;;;19.50;11.38;;;;;;;14.18;51.31;94357.47;5082669;27;20039;-76
2022/10/09 07:03:31;;;;;;;16.88;10.98;;;;;;;14.06;51.80;94333.31;5083787;28;20040;-77
2022/10/09 07:06:18;;;;;;;12.38;9.63;;;;;;;14.25;51.68;94357.75;5081885;27;20016;-77
2022/10/09 07:08:48;;;;;;;12.75;9.60;;;;;;;14.35;51.70;94357.41;5084399;27;20559;-76
2022/10/09 07:11:21;;;;;;;15.88;10.15;;;;;;;14.29;51.97;94331.94;5086449;27;20115;-76
2022/10/09 07:13:49;;;;;;;17.15;10.90;;;;;;;14.04;51.44;94293.50;5084352;27;20085;-77
2022/10/09 07:16:19;;;;;;;19.73;14.10;;;;;;;14.38;51.38;94345.25;5084081;27;20160;-77
2022/10/09 07:18:45;;;;;;;25.02;14.75;;;;;;;14.34;51.61;94353.16;5083382;28;20032;-77
2022/10/09 07:21:10;;;;;;;21.15;15.90;;;;;;;14.31;51.54;94356.47;5081933;28;20489;-77
2022/10/09 07:23:35;;;;;;;22.23;15.90;;;;;;;14.41;52.11;94352.66;5083223;27;20200;-76
2022/10/09 07:26:07;;;;;;;23.73;17.08;;;;;;;14.56;51.71;94368.97;5081238;27;20036;-76
2022/10/09 07:28:33;;;;;;;16.88;12.43;;;;;;;14.38;51.56;94346.03;5079777;27;20059;-76
2022/10/09 07:31:02;;;;;;;25.70;14.43;;;;;;;14.64;51.73;94380.72;5083179;27;20503;-76
2022/10/09 07:33:28;;;;;;;17.30;12.23;;;;;;;14.75;51.70;94376.56;5081027;27;20061;-78
2022/10/09 07:35:59;;;;;;;20.48;14.15;;;;;;;14.84;51.49;94379.16;5083174;27;20024;-76
2022/10/09 07:38:24;;;;;;;124.97;82.95;;;;;;;14.79;51.62;94372.13;5081719;28;20667;-76
2022/10/09 07:40:51;;;;;;;16.30;10.32;;;;;;;14.50;51.39;94354.16;5083318;27;20023;-77
2022/10/09 07:43:17;;;;;;;12.85;9.63;;;;;;;14.66;51.52;94391.91;5084526;27;20502;-77
2022/10/09 07:45:43;;;;;;;44.67;30.45;;;;;;;14.63;51.68;94378.34;5083748;27;20062;-77
2022/10/09 07:48:08;;;;;;;20.90;14.07;;;;;;;14.72;51.68;94387.09;5081822;28;20355;-77
2022/10/09 07:50:34;;;;;;;22.60;14.90;;;;;;;14.73;52.66;94376.09;5085584;28;20031;-76
2022/10/09 07:52:59;;;;;;;22.67;14.23;;;;;;;14.77;52.10;94378.88;5082232;27;20537;-76
2022/10/09 07:55:24;;;;;;;22.85;16.88;;;;;;;14.48;52.48;94347.56;5082203;27;20031;-77
2022/10/09 07:57:50;;;;;;;17.13;11.93;;;;;;;14.53;52.82;94353.53;5083375;28;20670;-76
2022/10/09 08:00:15;;;;;;;50.63;32.78;;;;;;;14.73;53.37;94361.91;5080916;27;20023;-76
2022/10/09 08:02:41;;;;;;;31.40;20.30;;;;;;;14.82;53.98;94376.81;5081911;28;20135;-77
2022/10/09 08:05:06;;;;;;;21.08;12.77;;;;;;;14.66;53.79;94348.28;5082930;28;20020;-77
2022/10/09 08:07:32;;;;;;;16.40;10.98;;;;;;;14.86;53.68;94360.91;5080736;28;20031;-76
2022/10/09 08:09:57;;;;;;;12.13;8.30;;;;;;;15.05;53.45;94369.25;5083570;28;20477;-77
2022/10/09 08:12:23;;;;;;;8.10;6.07;;;;;;;14.95;53.40;94358.94;5080727;28;20028;-77
2022/10/09 08:14:48;;;;;;;8.60;6.63;;;;;;;14.84;52.75;94361.22;5081993;28;20038;-77
2022/10/09 08:17:14;;;;;;;8.05;5.80;;;;;;;14.90;53.44;94367.16;5082377;28;20019;-76
2022/10/09 08:19:40;;;;;;;8.73;5.28;;;;;;;14.91;53.42;94368.75;5082020;28;20112;-76
2022/10/09 08:22:05;;;;;;;7.53;4.35;;;;;;;14.67;53.17;94341.81;5081930;28;20023;-76
2022/10/09 08:24:30;;;;;;;4.55;3.78;;;;;;;14.73;52.92;94341.28;5081451;28;20081;-76
2022/10/09 08:26:56;;;;;;;6.40;4.10;;;;;;;14.76;52.86;94362.06;5083887;28;20028;-77
2022/10/09 08:29:21;;;;;;;5.10;3.95;;;;;;;14.87;52.24;94357.09;5082809;28;21139;-77
2022/10/09 08:31:47;;;;;;;5.97;4.68;;;;;;;14.88;52.50;94347.94;5076798;28;20028;-77
2022/10/09 08:34:12;;;;;;;6.43;4.82;;;;;;;14.91;52.47;94345.38;5081965;28;20477;-76
2022/10/09 08:36:38;;;;;;;5.82;4.88;;;;;;;14.95;52.21;94342.88;5082360;28;20032;-77
2022/10/09 08:39:03;;;;;;;12.18;4.82;;;;;;;15.08;51.64;94363.22;5082010;28;20086;-76
2022/10/09 08:41:32;;;;;;;7.15;4.43;;;;;;;15.08;51.75;94371.28;5082370;28;20530;-76
2022/10/09 08:44:10;;;;;;;6.05;4.70;;;;;;;15.12;52.70;94353.41;5081433;28;20053;-76
2022/10/09 08:46:41;;;;;;;6.93;4.38;;;;;;;15.31;51.80;94371.69;5081958;28;20040;-76
2022/10/09 08:49:18;;;;;;;10.23;5.95;;;;;;;15.41;51.52;94371.28;5083971;28;21156;-77
2022/10/09 08:51:45;;;;;;;12.82;7.60;;;;;;;15.19;52.17;94336.81;5082965;28;20028;-76
2022/10/09 08:54:33;;;;;;;6.97;5.13;;;;;;;15.40;51.49;94348.31;5083976;28;20029;-76
2022/10/09 08:57:01;;;;;;;5.32;4.43;;;;;;;15.42;51.79;94338.03;5082039;28;20520;-76
2022/10/09 08:59:27;;;;;;;10.27;4.75;;;;;;;15.48;51.33;94344.00;5090535;27;20023;-76
2022/10/09 09:01:55;;;;;;;8.85;4.22;;;;;;;15.66;51.21;94345.38;5087225;27;20035;-77
2022/10/09 09:04:50;;;;;;;7.88;4.95;;;;;;;15.88;51.42;94342.31;5086658;27;20489;-78
2022/10/09 09:07:45;;;;;;;23.65;10.75;;;;;;;15.80;50.42;94345.84;5083113;27;20040;-76
2022/10/09 09:10:45;;;;;;;46.83;20.02;;;;;;;15.86;50.68;94344.53;5075403;28;20039;-78
2022/10/09 09:13:32;;;;;;;8.40;6.25;;;;;;;15.93;50.33;94346.66;5082113;27;20039;-76
2022/10/09 09:16:27;;;;;;;257.10;139.68;;;;;;;16.15;50.70;94340.88;5074629;27;20592;-77
2022/10/09 09:19:32;;;;;;;997.95;545.92;;;;;;;16.24;50.44;94328.91;5083772;27;20031;-76
2022/10/09 09:21:58;;;;;;;79.15;43.70;;;;;;;16.35;50.07;94336.53;5083514;27;20572;-76
2022/10/09 09:24:30;;;;;;;38.95;20.10;;;;;;;16.35;49.36;94307.78;5088459;27;20015;-76
2022/10/09 09:27:02;;;;;;;254.13;137.57;;;;;;;16.54;50.06;94336.75;5087492;27;20027;-76
2022/10/09 09:29:34;;;;;;;88.15;42.95;;;;;;;16.63;49.43;94340.09;5087272;27;20106;-76
2022/10/09 09:32:00;;;;;;;35.40;17.90;;;;;;;16.45;49.11;94303.88;5086800;27;20035;-76
2022/10/09 09:34:44;;;;;;;6.78;4.45;;;;;;;16.68;48.90;94339.84;5088994;27;20084;-78
2022/10/09 09:37:11;;;;;;;30.42;10.90;;;;;;;16.54;48.85;94318.72;5085703;27;20031;-77
2022/10/09 09:39:37;;;;;;;13.45;7.95;;;;;;;16.66;48.55;94339.44;5089398;27;20024;-78
2022/10/09 09:42:08;;;;;;;27.80;16.85;;;;;;;16.70;48.44;94341.09;5083228;27;20080;-78
2022/10/09 09:44:39;;;;;;;216.23;134.30;;;;;;;16.64;48.74;94337.06;5087326;27;20030;-76
2022/10/09 09:47:31;;;;;;;20.33;13.02;;;;;;;16.05;48.56;94245.50;5088349;27;20168;-78
2022/10/09 09:49:59;;;;;;;37.95;22.35;;;;;;;16.79;48.70;94334.81;5086015;27;20015;-78
2022/10/09 09:52:28;;;;;;;509.40;291.25;;;;;;;16.83;49.18;94347.22;5084177;27;20048;-78
2022/10/09 09:54:56;;;;;;;195.10;94.85;;;;;;;16.95;48.71;94343.72;5084576;27;20019;-78
2022/10/09 09:57:33;;;;;;;519.20;311.17;;;;;;;17.02;48.29;94347.38;5084587;27;20031;-77
2022/10/09 10:00:19;;;;;;;164.45;87.78;;;;;;;17.05;47.36;94346.72;5079629;27;20072;-77
2022/10/09 10:02:44;;;;;;;62.67;34.67;;;;;;;16.74;47.97;94298.22;5085460;27;20695;-76
2022/10/09 10:05:26;;;;;;;14.52;8.45;;;;;;;17.11;48.02;94345.34;5085828;27;20019;-77
2022/10/09 10:07:52;;;;;;;32.40;7.85;;;;;;;17.09;47.25;94342.22;5085367;27;20099;-77
2022/10/09 10:10:21;;;;;;;7.50;4.53;;;;;;;17.14;47.26;94343.91;5085126;27;20592;-77
2022/10/09 10:12:53;;;;;;;15.80;9.88;;;;;;;17.29;47.39;94347.78;5085484;27;20020;-77
2022/10/09 10:15:29;;;;;;;13.30;6.30;;;;;;;17.35;47.36;94343.75;5085530;27;20035;-77
2022/10/09 10:18:11;;;;;;;7.53;5.50;;;;;;;17.39;46.52;94342.72;5082202;27;20034;-76
2022/10/09 10:20:49;;;;;;;4.22;3.00;;;;;;;17.33;46.69;94343.28;5086058;27;20024;-77
2022/10/09 10:23:33;;;;;;;4.85;2.97;;;;;;;17.41;46.15;94340.44;5091537;27;20146;-77
2022/10/09 10:26:02;;;;;;;7.65;4.20;;;;;;;17.37;46.51;94346.84;5084521;27;20032;-76
2022/10/09 10:28:34;;;;;;;36.50;9.05;;;;;;;17.38;46.78;94338.44;5083508;27;20643;-76
2022/10/09 10:31:04;;;;;;;6.80;3.80;;;;;;;17.52;47.08;94336.13;5075174;27;20765;-75
2022/10/09 10:33:34;;;;;;;6.78;3.28;;;;;;;17.49;44.48;94338.75;5082179;27;20019;-77
2022/10/09 10:36:00;;;;;;;38.25;6.10;;;;;;;17.23;45.36;94287.31;5083147;27;22021;-77
2022/10/09 10:39:13;;;;;;;9.60;6.20;;;;;;;17.41;45.37;94304.69;5086892;27;20109;-78
2022/10/09 10:41:46;;;;;;;7.88;3.53;;;;;;;17.47;45.44;94314.88;5068670;27;20159;-78
2022/10/09 10:44:21;;;;;;;5.22;3.13;;;;;;;17.55;44.67;94329.31;5080227;27;20040;-79
2022/10/09 10:46:52;;;;;;;6.10;4.28;;;;;;;17.64;45.15;94324.53;5080355;27;20023;-78
2022/10/09 10:49:21;;;;;;;4.47;3.38;;;;;;;17.69;45.47;94310.84;5101723;27;20035;-77
2022/10/09 10:52:13;;;;;;;5.25;3.28;;;;;;;17.80;43.67;94317.25;5081773;27;20105;-77
2022/10/09 10:54:45;;;;;;;9.27;5.13;;;;;;;17.95;43.52;94319.22;5076098;27;20115;-78
2022/10/09 10:57:24;;;;;;;4.80;3.10;;;;;;;17.76;43.37;94294.88;5082164;27;20035;-77
2022/10/09 11:00:09;;;;;;;7.80;3.80;;;;;;;17.88;42.93;94299.41;5087065;27;20511;-77
2022/10/09 11:03:03;;;;;;;3.22;2.80;;;;;;;17.97;41.73;94303.50;5087368;27;20032;-77
2022/10/09 11:06:00;;;;;;;6.90;2.97;;;;;;;17.86;43.34;94299.75;5086191;28;20034;-77
2022/10/09 11:08:45;;;;;;;5.03;3.50;;;;;;;17.88;43.01;94294.81;5081505;27;20690;-77
2022/10/09 11:11:25;;;;;;;;;;;;;;;18.00;43.21;94300.13;5083715;27;20039;-77
2022/10/09 11:14:35;;;;;;;4.30;3.05;;;;;;;17.94;42.44;94298.81;5085034;27;19915;-77
2022/10/09 11:17:34;;;;;;;5.53;4.25;;;;;;;18.18;41.27;94299.78;5087156;27;20456;-77
2022/10/09 11:20:02;;;;;;;3.30;2.70;;;;;;;18.30;40.83;94286.97;5088816;27;20130;-77
2022/10/09 11:22:36;;;;;;;7.90;5.90;;;;;;;18.34;40.78;94285.13;5087174;28;20522;-77
2022/10/09 11:25:25;;;;;;;4.35;2.80;;;;;;;18.33;41.35;94270.09;5088676;27;20043;-77
2022/10/09 11:28:22;;;;;;;3.60;2.80;;;;;;;18.53;41.38;94273.63;5086061;27;20031;-77
2022/10/09 11:31:07;;;;;;;4.55;2.92;;;;;;;18.63;41.35;94278.47;5087039;27;20419;-76
2022/10/09 11:33:41;;;;;;;4.07;3.13;;;;;;;18.73;41.93;94277.94;5086683;28;20028;-76
2022/10/09 11:36:26;;;;;;;4.88;3.50;;;;;;;18.81;41.66;94276.19;5087698;27;20500;-76
2022/10/09 11:38:59;;;;;;;6.05;2.97;;;;;;;18.78;41.50;94258.81;5085555;28;20028;-77
2022/10/09 11:41:26;;;;;;;3.97;2.60;;;;;;;18.84;41.92;94264.69;5087877;27;20054;-76
2022/10/09 11:44:06;;;;;;;4.38;2.92;;;;;;;18.96;41.88;94263.78;5086385;28;20031;-76